createdAt,value
2019-04-14T00:02:09.682Z,5.20
2019-04-14T00:06:15.916Z,5.20
2019-04-14T00:10:22.464Z,5.20
2019-04-14T00:14:27.244Z,5.00
2019-04-14T00:18:31.934Z,5.10
2019-04-14T00:22:36.630Z,5.20
2019-04-14T00:26:42.284Z,5.10
2019-04-14T00:30:47.107Z,5.30
2019-04-14T00:35:03.893Z,5.30
2019-04-14T00:39:20.479Z,5.20
2019-04-14T00:43:33.087Z,5.00
2019-04-14T00:47:52.007Z,5.10
2019-04-14T00:51:48.521Z,5.30
2019-04-14T00:55:53.421Z,5.30
2019-04-14T00:59:58.095Z,5.20
2019-04-14T01:04:03.460Z,5.20
2019-04-14T01:08:09.665Z,5.10
2019-04-14T01:12:14.946Z,5.10
2019-04-14T01:16:23.075Z,5.20
2019-04-14T01:20:27.434Z,5.20
2019-04-14T01:24:33.565Z,5.10
2019-04-14T01:28:39.636Z,5.10
2019-04-14T01:32:45.509Z,5.10
2019-04-14T01:36:50.397Z,5.10
2019-04-14T01:40:55.304Z,5.10
2019-04-14T01:45:01.379Z,5.10
2019-04-14T01:49:07.244Z,5.20
2019-04-14T01:53:27.472Z,5.20
2019-04-14T01:57:54.616Z,5.00
2019-04-14T02:02:00.767Z,5.00
2019-04-14T02:06:05.737Z,4.90
2019-04-14T02:10:10.896Z,4.90
2019-04-14T02:14:16.786Z,4.70
2019-04-14T02:18:22.829Z,4.50
2019-04-14T02:22:28.822Z,4.50
2019-04-14T02:26:35.044Z,4.50
2019-04-14T02:30:51.214Z,4.40
2019-04-14T02:35:15.089Z,4.50
2019-04-14T02:39:20.974Z,4.50
2019-04-14T02:43:29.587Z,4.40
2019-04-14T02:51:38.492Z,4.20
2019-04-14T02:55:54.760Z,4.30
2019-04-14T02:59:52.921Z,4.30
2019-04-14T03:03:56.785Z,4.30
2019-04-14T03:07:59.964Z,4.20
2019-04-14T03:12:09.479Z,4.30
2019-04-14T03:20:47.573Z,4.20
2019-04-14T03:24:55.399Z,4.20
2019-04-14T03:29:21.012Z,4.10
2019-04-14T03:33:48.312Z,4.20
2019-04-14T03:41:38.660Z,3.90
2019-04-14T03:46:04.825Z,3.80
2019-04-14T03:53:53.362Z,4.00
2019-04-14T03:57:39.026Z,3.80
2019-04-14T04:01:43.977Z,4.00
2019-04-14T04:05:49.966Z,4.10
2019-04-14T04:09:58.830Z,4.10
2019-04-14T04:14:03.696Z,4.00
2019-04-14T04:18:14.109Z,4.10
2019-04-14T04:22:36.961Z,4.20
2019-04-14T04:26:51.722Z,4.10
2019-04-14T04:31:02.409Z,4.10
2019-04-14T04:35:22.562Z,4.10
2019-04-14T04:39:33.772Z,4.10
2019-04-14T04:43:37.247Z,4.10
2019-04-14T04:47:42.647Z,4.00
2019-04-14T04:51:48.567Z,4.10
2019-04-14T04:55:54.648Z,4.10
2019-04-14T05:00:00.600Z,3.90
2019-04-14T05:04:06.947Z,4.10
2019-04-14T05:08:13.012Z,4.00
2019-04-14T05:12:37.343Z,4.00
2019-04-14T05:16:42.031Z,3.90
2019-04-14T05:20:51.049Z,3.90
2019-04-14T05:24:57.095Z,3.80
2019-04-14T05:29:02.085Z,4.10
2019-04-14T05:33:07.451Z,4.10
2019-04-14T05:37:12.269Z,4.00
2019-04-14T05:41:17.996Z,3.90
2019-04-14T05:45:23.999Z,3.90
2019-04-14T05:49:37.852Z,4.10
2019-04-14T05:53:35.314Z,4.10
2019-04-14T05:57:40.016Z,4.10
2019-04-14T06:01:44.721Z,4.00
2019-04-14T06:05:49.658Z,4.10
2019-04-14T06:09:54.234Z,4.30
2019-04-14T06:13:58.893Z,3.90
2019-04-14T06:18:03.749Z,3.80
2019-04-14T06:22:08.348Z,4.00
2019-04-14T06:26:13.111Z,3.80
2019-04-14T06:30:32.989Z,3.90
2019-04-14T06:34:55.556Z,3.90
2019-04-14T06:39:06.694Z,3.90
2019-04-14T06:43:11.752Z,3.90
2019-04-14T06:47:16.833Z,3.80
2019-04-14T06:51:21.753Z,3.90
2019-04-14T06:55:26.383Z,3.90
2019-04-14T06:59:31.398Z,3.90
2019-04-14T07:03:36.040Z,4.00
2019-04-14T07:07:40.692Z,3.90
2019-04-14T07:11:45.583Z,3.90
2019-04-14T07:15:57.070Z,4.10
2019-04-14T07:20:02.779Z,4.10
2019-04-14T07:24:07.392Z,4.30
2019-04-14T07:28:12.413Z,4.30
2019-04-14T07:32:36.884Z,4.20
2019-04-14T07:37:19.119Z,4.20
2019-04-14T07:41:31.850Z,4.40
2019-04-14T07:45:53.712Z,4.30
2019-04-14T07:50:17.495Z,4.30
2019-04-14T07:54:30.477Z,4.50
2019-04-14T07:58:52.962Z,4.60
2019-04-14T08:03:02.227Z,4.90
2019-04-14T08:07:08.135Z,4.50
2019-04-14T08:11:12.866Z,4.70
2019-04-14T08:15:17.530Z,4.60
2019-04-14T08:19:22.214Z,4.70
2019-04-14T08:23:26.857Z,4.70
2019-04-14T08:27:31.501Z,4.70
2019-04-14T08:31:36.094Z,4.80
2019-04-14T08:35:45.270Z,4.70
2019-04-14T08:39:50.017Z,5.10
2019-04-14T08:44:15.232Z,5.10
2019-04-14T08:48:47.024Z,5.00
2019-04-14T08:53:02.732Z,5.10
2019-04-14T08:57:29.311Z,5.30
2019-04-14T09:01:55.850Z,5.30
2019-04-14T09:06:12.434Z,5.20
2019-04-14T09:10:28.242Z,5.50
2019-04-14T09:14:56.905Z,5.90
2019-04-14T09:19:07.072Z,5.90
2019-04-14T09:23:02.434Z,5.90
2019-04-14T09:27:07.143Z,6.00
2019-04-14T09:31:11.807Z,6.00
2019-04-14T09:35:35.565Z,5.90
2019-04-14T09:39:40.232Z,5.90
2019-04-14T09:43:44.874Z,5.90
2019-04-14T09:47:49.939Z,6.10
2019-04-14T09:51:57.084Z,6.00
2019-04-14T09:56:01.761Z,6.00
2019-04-14T10:00:08.029Z,6.10
2019-04-14T10:04:12.820Z,6.30
2019-04-14T10:08:18.713Z,6.10
2019-04-14T10:12:23.956Z,6.10
2019-04-14T10:16:29.181Z,6.00
2019-04-14T10:20:34.021Z,5.80
2019-04-14T10:24:39.029Z,5.80
2019-04-14T10:28:43.992Z,5.90
2019-04-14T10:32:48.733Z,6.00
2019-04-14T10:36:53.357Z,6.20
2019-04-14T10:40:58.067Z,6.10
2019-04-14T10:45:02.749Z,6.20
2019-04-14T10:49:07.327Z,6.30
2019-04-14T10:53:12.022Z,6.50
2019-04-14T10:57:16.849Z,6.60
2019-04-14T11:01:23.046Z,6.60
2019-04-14T11:05:34.861Z,6.60
2019-04-14T11:09:39.595Z,6.80
2019-04-14T11:13:44.276Z,6.80
2019-04-14T11:17:49.323Z,7.00
2019-04-14T11:21:54.358Z,7.00
2019-04-14T11:25:59.096Z,7.10
2019-04-14T11:30:04.907Z,7.30
2019-04-14T11:34:11.535Z,7.50
2019-04-14T11:38:29.088Z,7.50
2019-04-14T11:42:34.095Z,7.70
2019-04-14T11:46:39.296Z,7.80
2019-04-14T11:50:43.934Z,7.90
2019-04-14T11:54:49.977Z,7.90
2019-04-14T11:58:54.773Z,8.00
2019-04-14T12:03:10.505Z,8.00
2019-04-14T12:07:23.914Z,8.00
2019-04-14T12:11:28.783Z,8.30
2019-04-14T12:15:34.501Z,9.00
2019-04-14T12:19:39.785Z,9.30
2019-04-14T12:23:46.147Z,9.70
2019-04-14T12:27:51.560Z,9.40
2019-04-14T12:31:57.471Z,9.30
2019-04-14T12:36:08.339Z,9.40
2019-04-14T12:40:15.167Z,9.30
2019-04-14T12:44:40.476Z,9.10
2019-04-14T12:48:50.672Z,9.60
2019-04-14T12:52:56.896Z,9.60
2019-04-14T12:57:01.654Z,9.40
2019-04-14T13:01:10.680Z,9.30
2019-04-14T13:05:18.781Z,9.50
2019-04-14T13:09:26.137Z,9.60
2019-04-14T13:13:30.823Z,9.40
2019-04-14T13:17:35.763Z,9.50
2019-04-14T13:21:40.637Z,9.90
2019-04-14T13:25:45.547Z,10.20
2019-04-14T13:29:52.631Z,9.90
2019-04-14T13:33:57.429Z,9.90
2019-04-14T13:38:03.602Z,10.20
2019-04-14T13:42:08.345Z,10.20
2019-04-14T13:46:15.890Z,10.60
2019-04-14T13:50:20.648Z,10.60
2019-04-14T13:54:25.311Z,11.00
2019-04-14T13:58:30.318Z,10.70
2019-04-14T14:02:34.970Z,10.20
2019-04-14T14:06:39.604Z,10.20
2019-04-14T14:10:44.328Z,10.60
2019-04-14T14:15:00.835Z,11.00
2019-04-14T14:19:24.816Z,11.10
2019-04-14T14:23:48.808Z,10.50
2019-04-14T14:27:53.467Z,10.80
2019-04-14T14:31:58.787Z,10.90
2019-04-14T14:36:03.590Z,11.50
2019-04-14T14:40:09.558Z,11.60
2019-04-14T14:44:14.300Z,11.80
2019-04-14T14:48:26.052Z,11.90
2019-04-14T14:52:31.422Z,11.70
2019-04-14T14:56:36.458Z,11.30
2019-04-14T15:00:41.053Z,11.10
2019-04-14T15:04:45.834Z,11.40
2019-04-14T15:08:50.502Z,11.40
2019-04-14T15:12:55.374Z,11.50
2019-04-14T15:17:00.062Z,11.70
2019-04-14T15:21:04.960Z,11.50
2019-04-14T15:25:09.882Z,11.10
2019-04-14T15:29:14.510Z,11.30
2019-04-14T15:33:19.109Z,10.90
2019-04-14T15:37:23.818Z,10.70
2019-04-14T15:41:28.431Z,10.90
2019-04-14T15:45:33.438Z,11.00
2019-04-14T15:49:38.141Z,11.10
2019-04-14T15:53:43.061Z,11.20
2019-04-14T15:58:02.794Z,11.30
2019-04-14T16:02:19.273Z,10.90
2019-04-14T16:06:32.089Z,10.70
2019-04-14T16:11:14.483Z,10.70
2019-04-14T16:15:50.413Z,10.60
2019-04-14T16:19:59.829Z,10.50
2019-04-14T16:24:04.545Z,10.40
2019-04-14T16:28:20.617Z,10.30
2019-04-14T16:33:02.509Z,10.30
2019-04-14T16:37:08.274Z,10.30
2019-04-14T16:41:12.933Z,10.30
2019-04-14T16:45:20.787Z,10.30
2019-04-14T16:49:25.419Z,10.30
2019-04-14T16:53:33.274Z,10.40
2019-04-14T16:58:02.821Z,10.30
2019-04-14T17:02:11.152Z,10.30
2019-04-14T17:06:14.027Z,10.30
2019-04-14T17:10:18.707Z,10.30
2019-04-14T17:14:29.927Z,10.20
2019-04-14T17:18:54.444Z,10.20
2019-04-14T17:23:17.420Z,10.10
2019-04-14T17:27:41.163Z,10.00
2019-04-14T17:31:59.456Z,10.00
2019-04-14T17:36:20.906Z,9.90
2019-04-14T17:40:47.450Z,9.90
2019-04-14T17:45:14.919Z,9.90
2019-04-14T17:49:53.992Z,9.90
2019-04-14T17:54:04.022Z,9.80
2019-04-14T17:58:32.628Z,9.80
2019-04-14T18:02:59.417Z,9.80
2019-04-14T18:07:35.138Z,9.70
2019-04-14T18:11:57.694Z,9.60
2019-04-14T18:16:24.961Z,9.60
2019-04-14T18:20:33.095Z,9.60
2019-04-14T18:24:42.627Z,9.50
2019-04-14T18:28:54.299Z,9.50
2019-04-14T18:33:04.887Z,9.40
2019-04-14T18:37:19.399Z,9.40
2019-04-14T18:41:40.667Z,9.30
2019-04-14T18:45:54.343Z,9.30
2019-04-14T18:50:17.460Z,9.30
2019-04-14T18:54:28.853Z,9.20
2019-04-14T18:58:55.801Z,9.10
2019-04-14T19:03:00.572Z,9.10
2019-04-14T19:07:05.431Z,9.10
2019-04-14T19:11:38.314Z,9.10
2019-04-14T19:15:55.094Z,9.00
2019-04-14T19:20:01.667Z,9.00
2019-04-14T19:24:06.689Z,9.00
2019-04-14T19:28:11.353Z,9.00
2019-04-14T19:32:16.064Z,8.90
2019-04-14T19:36:20.886Z,8.90
2019-04-14T19:40:25.643Z,8.80
2019-04-14T19:44:30.529Z,8.80
2019-04-14T19:48:35.263Z,8.80
2019-04-14T19:52:39.882Z,8.90
2019-04-14T19:56:44.565Z,8.90
2019-04-14T20:00:53.060Z,8.90
2019-04-14T20:04:57.918Z,8.90
2019-04-14T20:09:02.700Z,8.80
2019-04-14T20:13:09.093Z,8.70
2019-04-14T20:17:33.094Z,8.60
2019-04-14T20:21:56.137Z,8.50
2019-04-14T20:26:35.669Z,8.40
2019-04-14T20:30:44.338Z,8.40
2019-04-14T20:34:49.222Z,8.40
2019-04-14T20:38:54.361Z,8.30
2019-04-14T20:42:59.058Z,8.40
2019-04-14T20:47:05.593Z,8.30
2019-04-14T20:51:10.305Z,8.30
2019-04-14T20:55:15.372Z,8.30
2019-04-14T20:59:20.293Z,8.20
2019-04-14T21:03:37.949Z,8.10
2019-04-14T21:08:01.100Z,8.10
2019-04-14T21:12:23.728Z,8.10
2019-04-14T21:16:37.862Z,8.10
2019-04-14T21:20:56.038Z,7.90
2019-04-14T21:25:13.314Z,7.90
2019-04-14T21:29:35.764Z,7.90
2019-04-14T21:33:47.956Z,7.70
2019-04-14T21:37:56.896Z,7.70
2019-04-14T21:42:01.597Z,7.70
2019-04-14T21:46:06.418Z,7.50
2019-04-14T21:50:11.905Z,7.50
2019-04-14T21:54:17.428Z,7.40
2019-04-14T21:58:31.196Z,7.40
2019-04-14T22:03:03.633Z,7.30
2019-04-14T22:07:26.433Z,7.20
2019-04-14T22:11:31.688Z,7.20
2019-04-14T22:15:36.450Z,7.10
2019-04-14T22:19:41.158Z,7.10
2019-04-14T22:23:59.919Z,7.10
2019-04-14T22:27:54.043Z,7.10
2019-04-14T22:31:58.915Z,7.20
2019-04-14T22:36:04.510Z,7.20
2019-04-14T22:40:11.065Z,7.30
2019-04-14T22:44:15.738Z,7.20
2019-04-14T22:48:21.382Z,7.20
2019-04-14T22:52:26.854Z,7.20
2019-04-14T22:56:39.291Z,7.20
2019-04-14T23:00:46.168Z,7.20
2019-04-14T23:05:06.200Z,7.10
2019-04-14T23:09:24.492Z,7.20
2019-04-14T23:14:00.871Z,7.10
2019-04-14T23:18:28.947Z,7.10
2019-04-14T23:22:50.023Z,7.10
2019-04-14T23:26:54.739Z,7.00
2019-04-14T23:31:01.655Z,6.80
2019-04-14T23:35:06.329Z,6.60
2019-04-14T23:39:12.589Z,6.50
2019-04-14T23:43:17.169Z,6.40
2019-04-14T23:47:21.743Z,6.30
2019-04-14T23:51:26.614Z,6.30
2019-04-14T23:55:31.553Z,6.20
2019-04-14T23:59:36.165Z,6.20
